• Join FlightAware (Why Join?)
  • Login
  • US Flag 
08:18AM EDT


 

Airport Tracker/Info


-or-


 

Live Flight TrackerFlight Track Log ✈ AWE3327 ✈ 17-Apr-2013 ✈ KDCA - KSRQ

Flight Track Log - Related Links

Times and Time Zones

All times are in EDT time to prevent confusion due to time zone crossing. See the AWE3327 flight status page for this flight to view local times or setup timezone preferences in your user account.

Time Position Orientation Groundspeed Altitude Reporting Facility
EDT Latitude Longitude Course Direction KTS MPH feet Rate Location/Type
09:40AM 38.8667 -77.0500 201° Southwest 168 193 1,000  Level Potomac TRACON
09:41AM 38.9000 -77.0833 322° Northwest 192 221 3,200 2,340 Climbing Potomac TRACON
09:42AM 38.9500 -77.1500 314° West 251 289 5,700 2,820 Climbing Potomac TRACON
09:43AM 38.5502 -77.3664 218° Southwest  Level FlightAware Approximate
09:43AM 38.9833 -77.2167 303° West 274 315 8,900  Level Potomac TRACON
09:44AM 38.4770 -77.4559 225° Southwest  Level FlightAware Approximate
09:44AM 38.9167 -77.2833 218° Southwest 301 346 12,100  Level Potomac TRACON
09:45AM 38.4019 -77.5407 201° Southwest  Level FlightAware Approximate
09:45AM 38.8333 -77.3167 197° South 308 354 15,000  Level Potomac TRACON
09:46AM 38.7667 -77.3667 210° Southwest 318 366 15,100 720 Climbing Potomac TRACON
09:47AM 38.6667 -77.4167 201° Southwest 366 421 16,400 1,320 Climbing Potomac TRACON
09:48AM 38.5608 -77.4742 203° Southwest 360 414 18,200 1,800 Climbing Washington Center
09:49AM 38.4514 -77.5375 204° Southwest 373 429 20,500 1,440 Climbing Washington Center
09:50AM 38.3711 -77.6097 215° Southwest 393 452 21,100 1,080 Climbing Washington Center
09:51AM 38.2858 -77.7186 225° Southwest 393 452 22,700 1,680 Climbing Washington Center
09:52AM 38.2092 -77.7983 219° Southwest 399 459 24,500 1,500 Climbing Washington Center
09:53AM 38.1136 -77.8983 219° Southwest 408 470 25,800 1,260 Climbing Washington Center
09:54AM 38.0306 -77.9828 219° Southwest 416 479 27,100 1,260 Climbing Washington Center
09:55AM 37.9303 -78.0875 219° Southwest 423 487 28,400 1,320 Climbing Washington Center
09:56AM 37.8450 -78.1847 222° Southwest 428 493 29,800 1,260 Climbing Washington Center
09:57AM 37.7533 -78.2736 217° Southwest 428 493 31,000 1,080 Climbing Washington Center
09:58AM 37.6722 -78.3572 219° Southwest 422 486 32,000 960 Climbing Washington Center
09:59AM 37.5825 -78.4483 219° Southwest 422 486 33,000 960 Climbing Washington Center
10:00AM 37.4925 -78.5392 219° Southwest 422 486 34,000 480 Climbing Washington Center
10:01AM 37.4028 -78.6297 219° Southwest 417 480 34,000  Level Washington Center
10:02AM 37.3064 -78.7278 219° Southwest 412 474 34,000  Level Washington Center
10:03AM 37.2061 -78.8044 211° Southwest 417 480 34,000  Level Washington Center
10:04AM 37.1042 -78.8731 208° Southwest 422 486 34,000  Level Washington Center
10:05AM 37.0042 -78.9469 211° Southwest 422 486 34,000  Level Washington Center
10:06AM 36.9019 -79.0178 209° Southwest 422 486 34,000  Level Washington Center
10:07AM 36.8083 -79.0836 209° Southwest 428 493 34,000  Level Washington Center
10:08AM 36.7061 -79.1542 209° Southwest 423 487 34,000  Level Washington Center
10:09AM 36.6058 -79.2247 209° Southwest 423 487 34,000  Level Washington Center
10:10AM 36.4994 -79.2947 208° Southwest 423 487 34,000  Level Washington Center
10:11AM 36.4011 -79.3647 210° Southwest 439 505 34,000  Level Washington Center
10:12AM 36.2794 -79.4517 210° Southwest 451 519 34,000  Level Washington Center
10:15AM 36.0022 -79.6342 208° Southwest 451 519 34,000  Level Atlanta Center
10:16AM 35.8903 -79.7094 209° Southwest 456 525 34,000  Level Atlanta Center
10:17AM 35.7761 -79.7872 209° Southwest 461 531 34,000  Level Atlanta Center
10:18AM 35.6742 -79.8564 209° Southwest 473 544 34,000  Level Atlanta Center
10:19AM 35.5478 -79.9447 210° Southwest 473 544 34,000  Level Atlanta Center
10:20AM 35.4269 -80.0119 204° Southwest 467 537 34,000  Level Atlanta Center
10:21AM 35.3081 -80.0761 204° Southwest 474 545 34,000  Level Atlanta Center
10:22AM 35.1008 -80.1881 204° Southwest 460 529 34,000  Level Jacksonville Center
10:23AM 34.9833 -80.2550 205° Southwest 460 529 34,000  Level Jacksonville Center
10:24AM 34.8678 -80.3194 205° Southwest 460 529 34,000  Level Jacksonville Center
10:25AM 34.7625 -80.3756 204° Southwest 460 529 34,000  Level Jacksonville Center
10:26AM 34.6450 -80.4422 205° Southwest 460 529 34,000  Level Jacksonville Center
10:27AM 34.5294 -80.5033 204° Southwest 460 529 34,000  Level Jacksonville Center
10:28AM 34.4136 -80.5644 204° Southwest 460 529 34,000  Level Jacksonville Center
10:29AM 34.2958 -80.6281 204° Southwest 460 529 34,000  Level Jacksonville Center
10:30AM 34.1781 -80.6914 204° Southwest 460 529 34,000  Level Jacksonville Center
10:31AM 34.0583 -80.7519 203° Southwest 460 529 34,000  Level Jacksonville Center
10:32AM 33.9383 -80.8175 204° Southwest 466 536 34,000  Level Jacksonville Center
10:33AM 33.8183 -80.8803 203° Southwest 466 536 34,000 -60 Level Jacksonville Center
10:34AM 33.7067 -80.9403 204° Southwest 461 531 33,900 -600 Descending Jacksonville Center
10:35AM 33.5947 -81.0000 204° Southwest 454 522 32,900 -960 Descending Jacksonville Center
10:36AM 33.4789 -81.0597 203° Southwest 449 517 32,000 -480 Descending Jacksonville Center
10:37AM 33.3503 -81.1269 204° Southwest 456 525 32,000  Level Jacksonville Center
10:38AM 33.2364 -81.1864 204° Southwest 456 525 32,000  Level Jacksonville Center
10:39AM 33.1181 -81.2458 203° Southwest 456 525 32,000  Level Jacksonville Center
10:40AM 33.0042 -81.3047 203° Southwest 456 525 32,000 -120 Level Jacksonville Center
10:41AM 32.8881 -81.3639 203° Southwest 456 525 31,800 -1,380 Descending Jacksonville Center
10:42AM 32.7717 -81.4250 204° Southwest 456 525 29,300 -1,920 Descending Jacksonville Center
10:43AM 32.6536 -81.4861 204° Southwest 461 531 28,000 -660 Descending Jacksonville Center
10:44AM 32.5353 -81.5472 204° Southwest 461 531 28,000  Level Jacksonville Center
10:45AM 32.4167 -81.6056 203° Southwest 456 525 28,000  Level Jacksonville Center
10:46AM 32.3067 -81.6489 198° South 461 531 28,000  Level Jacksonville Center
10:47AM 32.1669 -81.6850 192° South 467 537 28,000  Level Jacksonville Center
10:48AM 32.0503 -81.7111 191° South 472 543 28,000  Level Jacksonville Center
10:49AM 31.9128 -81.7447 192° South 467 537 28,000  Level Jacksonville Center
10:50AM 31.7858 -81.7756 192° South 467 537 28,000  Level Jacksonville Center
10:51AM 31.6775 -81.8014 191° South 461 531 28,000  Level Jacksonville Center
10:52AM 31.5358 -81.8372 192° South 468 539 28,000  Level Jacksonville Center
10:53AM 31.4108 -81.8653 191° South 468 539 28,000  Level Jacksonville Center
10:54AM 31.2983 -81.8981 194° South 468 539 28,000  Level Jacksonville Center
10:55AM 31.1731 -81.9261 191° South 468 539 28,000  Level Jacksonville Center
10:56AM 31.0461 -81.9542 191° South 468 539 28,000  Level Jacksonville Center
10:57AM 30.9211 -81.9844 192° South 468 539 28,000 -180 Level Jacksonville Center
10:58AM 30.7958 -82.0147 192° South 468 539 27,700 -660 Descending Jacksonville Center
10:59AM 30.6750 -82.0447 192° South 461 531 26,700 -900 Descending Jacksonville Center
11:00AM 30.5436 -82.0700 189° South 448 516 26,000 -360 Descending Jacksonville Center
11:01AM 30.4247 -82.1000 192° South 435 501 26,000  Level Jacksonville Center
11:02AM 30.3061 -82.1275 191° South 430 495 26,000  Level Jacksonville Center
11:03AM 30.1872 -82.1547 191° South 435 501 26,000  Level Jacksonville Center
11:04AM 30.0683 -82.1844 192° South 435 501 26,000  Level Jacksonville Center
11:05AM 29.9578 -82.2142 193° South 441 507 26,000  Level Jacksonville Center
11:06AM 29.8389 -82.2414 191° South 441 507 26,000  Level Jacksonville Center
11:07AM 29.7117 -82.2661 190° South 441 507 26,000  Level Jacksonville Center
11:08AM 29.5886 -82.2572 176° South 436 502 26,000  Level Jacksonville Center
11:09AM 29.4653 -82.2392 173° South 441 507 26,000 -600 Level Jacksonville Center
11:10AM 29.3419 -82.2208 173° South 451 519 24,900 -1,260 Descending Jacksonville Center
11:11AM 29.2250 -82.2000 171° South 444 511 23,500 -1,920 Descending Jacksonville Center
11:12AM 29.1081 -82.1844 173° South 439 505 21,100 -2,400 Descending Jacksonville Center
11:13AM 28.9953 -82.1661 172° South 429 494 18,700 -2,220 Descending Jacksonville Center
11:14AM 28.8950 -82.1503 172° South 417 480 16,700 -2,280 Descending Jacksonville Center
11:15AM 28.7883 -82.1344 173° South 405 466 14,200 -1,140 Descending Jacksonville Center
11:18AM 28.5500 -82.1000 173° South 376 433 13,000 -420 Descending Tampa TRACON
11:19AM 28.4333 -82.0833 173° South 376 433 13,000 -360 Level Tampa TRACON
11:20AM 28.3333 -82.0667 172° South 374 430 12,300 -900 Descending Tampa TRACON
11:21AM 28.2333 -82.0833 188° South 369 425 11,200 -1,080 Descending Tampa TRACON
11:22AM 28.1333 -82.1167 196° South 358 412 10,200 -600 Descending Tampa TRACON
11:23AM 28.0500 -82.1500 199° South 325 374 10,000 -780 Descending Tampa TRACON
11:24AM 27.9667 -82.1667 190° South 294 338 8,700 -1,200 Descending Tampa TRACON
11:25AM 27.8833 -82.2000 199° South 290 334 7,600 -1,320 Descending Tampa TRACON
11:26AM 27.8000 -82.2167 190° South 287 330 6,100 -840 Descending Tampa TRACON
11:27AM 27.7333 -82.2500 204° Southwest 285 328 6,000 -60 Descending Tampa TRACON
11:28AM 27.6833 -82.3167 230° Southwest 279 321 6,000 -420 Level Tampa TRACON
11:29AM 27.6167 -82.3667 214° Southwest 276 318 5,200 -1,080 Descending Tampa TRACON
11:30AM 27.5833 -82.4500 246° West 277 319 3,900 -1,080 Descending Tampa TRACON
11:31AM 27.5500 -82.5167 241° Southwest 239 275 3,100 -1,080 Descending Tampa TRACON
11:32AM 27.5167 -82.5667 233° Southwest 231 266 1,800 -720 Descending Tampa TRACON
11:33AM 27.4833 -82.6167 233° Southwest 185 213 1,700 -120 Descending Tampa TRACON